EHC04 EHLE-EHLE
Flight info
| Callsign | EHC04 |
|---|---|
| Flight time | 0h 5m |
| Altitude | 1200 |
| Route | DCT LOWFLYINGAREAEHLE DCT EHAM DCT AMSTERDAM DCT EHLE |
| Aircraft | EC35/M-SBGRY/L |
Departure
| Time | 2026-04-23 19:39 |
|---|---|
| Airport | Lelystad Airport (EHLE) |
Arrival
| Time | 2026-04-23 19:44 |
|---|---|
| Airport | Lelystad Airport (EHLE) |
| Time | Latitude | Longitude | Altitude | Speed | Heading |
|---|---|---|---|---|---|
| 2026-04-23 19:31 | 52.45308 | 5.51914 | -7 ft | 0 kts | 45° |
| 2026-04-23 19:37 | 52.45323 | 5.51917 | 23 ft | 12 kts | 1° |
| 2026-04-23 19:38 | 52.45454 | 5.51849 | 27 ft | 29 kts | 322° |
| 2026-04-23 19:38 | 52.45536 | 5.51850 | 35 ft | 22 kts | 233° |
| 2026-04-23 19:38 | 52.45336 | 5.51478 | 17 ft | 64 kts | 231° |
| 2026-04-23 19:38 | 52.45047 | 5.50921 | 241 ft | 61 kts | 232° |
| 2026-04-23 19:39 | 52.44750 | 5.50477 | 557 ft | 54 kts | 230° |
| 2026-04-23 19:39 | 52.44438 | 5.49955 | 696 ft | 79 kts | 228° |
| 2026-04-23 19:39 | 52.44014 | 5.49196 | 720 ft | 100 kts | 227° |
| 2026-04-23 19:39 | 52.43494 | 5.48368 | 718 ft | 110 kts | 223° |
| 2026-04-23 19:40 | 52.42926 | 5.47459 | 670 ft | 118 kts | 224° |
| 2026-04-23 19:40 | 52.42347 | 5.46458 | 632 ft | 122 kts | 226° |
| 2026-04-23 19:40 | 52.41783 | 5.45398 | 557 ft | 124 kts | 227° |
| 2026-04-23 19:40 | 52.41266 | 5.44340 | 620 ft | 113 kts | 230° |
| 2026-04-23 19:41 | 52.40821 | 5.43323 | 754 ft | 106 kts | 234° |
| 2026-04-23 19:41 | 52.40435 | 5.42329 | 888 ft | 101 kts | 239° |
| 2026-04-23 19:41 | 52.40208 | 5.41678 | 1001 ft | 98 kts | 243° |
| 2026-04-23 19:41 | 52.39988 | 5.41036 | 1089 ft | 97 kts | 237° |
| 2026-04-23 19:42 | 52.39644 | 5.40390 | 1105 ft | 96 kts | 221° |
| 2026-04-23 19:42 | 52.39297 | 5.39992 | 1132 ft | 95 kts | 207° |
| 2026-04-23 19:42 | 52.38710 | 5.39682 | 1178 ft | 91 kts | 181° |
| 2026-04-23 19:42 | 52.38177 | 5.39699 | 1180 ft | 91 kts | 162° |
| 2026-04-23 19:43 | 52.37852 | 5.39825 | 1191 ft | 88 kts | 149° |
| 2026-04-23 19:43 | 52.37561 | 5.40039 | 1145 ft | 87 kts | 141° |
| 2026-04-23 19:43 | 52.37150 | 5.40341 | 1088 ft | 89 kts | 145° |
| 2026-04-23 19:44 | 52.36769 | 5.40562 | 1042 ft | 91 kts | 153° |
| 2026-04-23 19:44 | 52.36218 | 5.40714 | 717 ft | 100 kts | 166° |
| 2026-04-23 19:44 | 52.35611 | 5.40692 | 333 ft | 59 kts | 186° |
| 2026-04-23 19:44 | 52.35324 | 5.40559 | 49 ft | 49 kts | 200° |
| 2026-04-23 19:45 | 52.35203 | 5.40403 | 174 ft | 30 kts | 280° |
| 2026-04-23 19:45 | 52.35203 | 5.40156 | 68 ft | 53 kts | 280° |
| 2026-04-23 19:45 | 52.35177 | 5.39883 | 117 ft | 13 kts | 290° |
| 2026-04-23 19:45 | 52.35153 | 5.39799 | 88 ft | 23 kts | 332° |
| 2026-04-23 19:46 | 52.35297 | 5.39654 | 27 ft | 59 kts | 332° |
| 2026-04-23 19:46 | 52.35545 | 5.39883 | 52 ft | 73 kts | 77° |
| 2026-04-23 19:46 | 52.35168 | 5.40013 | 61 ft | 68 kts | 240° |
| 2026-04-23 19:46 | 52.35000 | 5.39400 | 106 ft | 55 kts | 258° |
| 2026-04-23 19:47 | 52.34912 | 5.38776 | 10 ft | 60 kts | 254° |
| 2026-04-23 19:47 | 52.34523 | 5.38623 | 53 ft | 78 kts | 136° |
| 2026-04-23 19:47 | 52.34530 | 5.39290 | 76 ft | 68 kts | 24° |
| 2026-04-23 19:47 | 52.34844 | 5.38916 | 113 ft | 77 kts | 268° |
| 2026-04-23 19:48 | 52.34395 | 5.38494 | 159 ft | 92 kts | 161° |
| 2026-04-23 19:48 | 52.34147 | 5.39159 | 208 ft | 82 kts | 68° |
| 2026-04-23 19:48 | 52.34581 | 5.39427 | 310 ft | 79 kts | 325° |
| 2026-04-23 19:48 | 52.34798 | 5.38612 | 436 ft | 90 kts | 259° |
| 2026-04-23 19:49 | 52.34312 | 5.37904 | 605 ft | 99 kts | 203° |
| 2026-04-23 19:49 | 52.33639 | 5.37553 | 788 ft | 104 kts | 192° |
| 2026-04-23 19:49 | 52.32922 | 5.37302 | 979 ft | 107 kts | 186° |
| 2026-04-23 19:49 | 52.32172 | 5.37127 | 1151 ft | 111 kts | 181° |
| 2026-04-23 19:50 | 52.31547 | 5.36390 | 1123 ft | 116 kts | 239° |
| 2026-04-23 19:50 | 52.31162 | 5.35246 | 1184 ft | 113 kts | 245° |
| 2026-04-23 19:50 | 52.30833 | 5.34096 | 1113 ft | 110 kts | 247° |
| 2026-04-23 19:50 | 52.30546 | 5.32961 | 912 ft | 112 kts | 251° |
| 2026-04-23 19:51 | 52.30336 | 5.31800 | 930 ft | 128 kts | 260° |
| 2026-04-23 19:51 | 52.30196 | 5.30296 | 998 ft | 139 kts | 264° |
| 2026-04-23 19:51 | 52.30252 | 5.28727 | 1015 ft | 141 kts | 282° |
| 2026-04-23 19:51 | 52.30561 | 5.27217 | 1029 ft | 138 kts | 292° |
| 2026-04-23 19:52 | 52.31014 | 5.25853 | 1032 ft | 138 kts | 301° |
| 2026-04-23 19:52 | 52.31555 | 5.24559 | 1037 ft | 138 kts | 298° |
| 2026-04-23 19:52 | 52.31907 | 5.23081 | 1033 ft | 142 kts | 283° |
| 2026-04-23 19:52 | 52.32021 | 5.21453 | 1031 ft | 148 kts | 271° |
| 2026-04-23 19:53 | 52.31983 | 5.19763 | 1038 ft | 149 kts | 265° |
| 2026-04-23 19:53 | 52.31883 | 5.18072 | 1034 ft | 150 kts | 265° |
| 2026-04-23 19:53 | 52.32044 | 5.16432 | 1036 ft | 144 kts | 290° |
| 2026-04-23 19:53 | 52.32589 | 5.15196 | 1037 ft | 138 kts | 316° |
| 2026-04-23 19:54 | 52.33427 | 5.14515 | 1036 ft | 135 kts | 342° |
| 2026-04-23 19:54 | 52.34343 | 5.14535 | 1102 ft | 125 kts | 359° |
| 2026-04-23 19:54 | 52.35124 | 5.13966 | 1062 ft | 134 kts | 314° |
| 2026-04-23 19:54 | 52.35426 | 5.12465 | 1053 ft | 148 kts | 270° |
| 2026-04-23 19:55 | 52.35048 | 5.10877 | 1042 ft | 156 kts | 231° |
| 2026-04-23 19:55 | 52.34264 | 5.09618 | 1035 ft | 159 kts | 223° |
| 2026-04-23 19:55 | 52.33660 | 5.08158 | 1054 ft | 155 kts | 240° |
| 2026-04-23 19:55 | 52.33526 | 5.06475 | 1033 ft | 149 kts | 284° |
| 2026-04-23 19:56 | 52.34098 | 5.05170 | 1052 ft | 137 kts | 312° |
| 2026-04-23 19:56 | 52.34759 | 5.04114 | 1036 ft | 137 kts | 315° |
| 2026-04-23 19:56 | 52.35449 | 5.03033 | 1037 ft | 137 kts | 315° |
| 2026-04-23 19:56 | 52.36146 | 5.01957 | 1038 ft | 138 kts | 315° |
| 2026-04-23 19:57 | 52.36800 | 5.00813 | 1045 ft | 140 kts | 302° |
| 2026-04-23 19:57 | 52.37091 | 4.99285 | 1036 ft | 145 kts | 282° |
| 2026-04-23 19:57 | 52.37369 | 4.97701 | 1042 ft | 144 kts | 290° |
| 2026-04-23 19:57 | 52.37797 | 4.96375 | 746 ft | 143 kts | 290° |
| 2026-04-23 19:58 | 52.38081 | 4.94861 | 498 ft | 128 kts | 279° |
| 2026-04-23 19:58 | 52.38130 | 4.93561 | 592 ft | 106 kts | 269° |
| 2026-04-23 19:58 | 52.38131 | 4.92412 | 511 ft | 96 kts | 266° |
| 2026-04-23 19:58 | 52.38007 | 4.91467 | 473 ft | 89 kts | 262° |
| 2026-04-23 19:59 | 52.38081 | 4.90531 | 395 ft | 80 kts | 295° |
| 2026-04-23 19:59 | 52.38131 | 4.89666 | 359 ft | 81 kts | 249° |
| 2026-04-23 19:59 | 52.37657 | 4.89180 | 314 ft | 86 kts | 185° |
| 2026-04-23 19:59 | 52.37139 | 4.89068 | 402 ft | 63 kts | 193° |
| 2026-04-23 20:00 | 52.36760 | 4.88777 | 330 ft | 77 kts | 207° |
| 2026-04-23 20:00 | 52.36224 | 4.88613 | 523 ft | 80 kts | 184° |
| 2026-04-23 20:00 | 52.35667 | 4.88744 | 747 ft | 82 kts | 162° |
| 2026-04-23 20:00 | 52.35096 | 4.88908 | 920 ft | 84 kts | 170° |
| 2026-04-23 20:01 | 52.34437 | 4.88829 | 899 ft | 111 kts | 194° |
| 2026-04-23 20:01 | 52.33818 | 4.88182 | 911 ft | 128 kts | 223° |
| 2026-04-23 20:01 | 52.33334 | 4.86870 | 907 ft | 142 kts | 250° |
| 2026-04-23 20:01 | 52.33256 | 4.86398 | 902 ft | 144 kts | 257° |
| 2026-04-23 20:02 | 52.33228 | 4.85158 | 1135 ft | 117 kts | 272° |
| 2026-04-23 20:02 | 52.33244 | 4.83710 | 904 ft | 143 kts | 264° |
| 2026-04-23 20:02 | 52.32761 | 4.82255 | 823 ft | 149 kts | 228° |
| 2026-04-23 20:02 | 52.32023 | 4.81127 | 637 ft | 136 kts | 217° |
| 2026-04-23 20:03 | 52.31353 | 4.80208 | 205 ft | 113 kts | 221° |
| 2026-04-23 20:03 | 52.30887 | 4.79441 | 253 ft | 78 kts | 245° |
| 2026-04-23 20:03 | 52.30801 | 4.78784 | 245 ft | 54 kts | 290° |
| 2026-04-23 20:03 | 52.30852 | 4.78288 | 324 ft | 39 kts | 284° |
| 2026-04-23 20:04 | 52.30811 | 4.77795 | 414 ft | 50 kts | 269° |
| 2026-04-23 20:04 | 52.30736 | 4.77205 | 405 ft | 54 kts | 284° |
| 2026-04-23 20:04 | 52.30845 | 4.76644 | 302 ft | 54 kts | 291° |
| 2026-04-23 20:04 | 52.30699 | 4.76142 | 202 ft | 49 kts | 173° |
| 2026-04-23 20:05 | 52.30767 | 4.76386 | 318 ft | 52 kts | 342° |
| 2026-04-23 20:05 | 52.30645 | 4.75868 | 380 ft | 76 kts | 187° |
| 2026-04-23 20:05 | 52.30444 | 4.76402 | 370 ft | 59 kts | 36° |
| 2026-04-23 20:05 | 52.30771 | 4.76370 | 431 ft | 43 kts | 326° |
| 2026-04-23 20:06 | 52.30639 | 4.76054 | 408 ft | 50 kts | 161° |
| 2026-04-23 20:06 | 52.30611 | 4.76355 | 343 ft | 21 kts | 24° |
| 2026-04-23 20:06 | 52.30744 | 4.76292 | 264 ft | 34 kts | 353° |
| 2026-04-23 20:06 | 52.31061 | 4.76159 | 242 ft | 65 kts | 315° |
| 2026-04-23 20:07 | 52.31069 | 4.75353 | 233 ft | 82 kts | 236° |
| 2026-04-23 20:07 | 52.30681 | 4.75443 | 403 ft | 62 kts | 92° |
| 2026-04-23 20:07 | 52.30655 | 4.76106 | 343 ft | 69 kts | 73° |
| 2026-04-23 20:07 | 52.30839 | 4.76281 | 338 ft | 30 kts | 272° |
| 2026-04-23 20:08 | 52.30711 | 4.76324 | 212 ft | 36 kts | 91° |
| 2026-04-23 20:08 | 52.30789 | 4.76470 | 188 ft | 13 kts | 113° |
| 2026-04-23 20:08 | 52.30796 | 4.76478 | 223 ft | 10 kts | 116° |
| 2026-04-23 20:08 | 52.30866 | 4.76480 | 533 ft | 14 kts | 202° |
| 2026-04-23 20:09 | 52.30899 | 4.76605 | 690 ft | 24 kts | 181° |
| 2026-04-23 20:09 | 52.30854 | 4.76840 | 791 ft | 9 kts | 80° |
| 2026-04-23 20:09 | 52.30786 | 4.76797 | 803 ft | 13 kts | 71° |
| 2026-04-23 20:09 | 52.30733 | 4.76830 | 803 ft | 19 kts | 67° |